createdAt,value
2022-10-04T00:02:39.107Z,2.15
2022-10-04T00:07:47.611Z,2.03
2022-10-04T00:12:58.473Z,1.90
2022-10-04T00:18:05.479Z,2.42
2022-10-04T00:23:36.969Z,1.60
2022-10-04T00:28:40.119Z,2.13
2022-10-04T00:33:44.643Z,1.60
2022-10-04T00:39:08.038Z,2.92
2022-10-04T00:44:17.832Z,2.70
2022-10-04T00:49:23.631Z,2.13
2022-10-04T00:54:41.483Z,1.70
2022-10-04T00:59:49.892Z,2.00
2022-10-04T01:04:57.098Z,1.98
2022-10-04T01:10:02.442Z,2.47
2022-10-04T01:15:04.892Z,2.35
2022-10-04T01:20:33.493Z,2.60
2022-10-04T01:25:46.185Z,2.55
2022-10-04T01:30:48.506Z,2.20
2022-10-04T01:35:50.860Z,2.78
2022-10-04T01:41:00.110Z,1.80
2022-10-04T01:46:09.876Z,2.03
2022-10-04T01:51:17.471Z,2.00
2022-10-04T01:56:23.689Z,2.30
2022-10-04T02:01:41.467Z,2.17
2022-10-04T02:06:45.324Z,2.28
2022-10-04T02:11:52.742Z,2.03
2022-10-04T02:16:55.200Z,2.45
2022-10-04T02:21:58.409Z,2.20
2022-10-04T02:27:00.722Z,2.35
2022-10-04T02:32:24.170Z,2.50
2022-10-04T02:37:27.745Z,2.40
2022-10-04T02:48:26.835Z,2.00
2022-10-04T02:53:41.479Z,2.40
2022-10-04T02:58:43.977Z,2.35
2022-10-04T03:03:46.979Z,2.20
2022-10-04T03:08:53.225Z,2.33
2022-10-04T03:13:57.878Z,2.72
2022-10-04T03:19:01.156Z,2.60
2022-10-04T03:24:06.460Z,2.65
2022-10-04T03:29:10.441Z,2.10
2022-10-04T03:34:15.722Z,1.83
2022-10-04T03:39:28.240Z,2.05
2022-10-04T03:44:32.057Z,2.30
2022-10-04T03:49:50.842Z,2.80
2022-10-04T03:54:55.407Z,2.42
2022-10-04T03:59:58.688Z,2.63
2022-10-04T04:05:20.912Z,3.00
2022-10-04T04:10:32.262Z,3.00
2022-10-04T04:15:35.635Z,2.92
2022-10-04T04:20:38.932Z,2.80
2022-10-04T04:25:44.384Z,3.00
2022-10-04T04:30:49.080Z,3.15
2022-10-04T04:35:55.795Z,3.40
2022-10-04T04:40:58.155Z,2.58
2022-10-04T04:46:25.454Z,2.53
2022-10-04T04:51:24.075Z,3.30
2022-10-04T04:56:28.439Z,3.13
2022-10-04T05:01:43.882Z,2.60
2022-10-04T05:06:49.105Z,8.23
2022-10-04T05:11:52.826Z,6.65
2022-10-04T05:16:55.427Z,5.00
2022-10-04T05:22:01.101Z,4.60
2022-10-04T05:27:06.211Z,5.65
2022-10-04T05:32:24.888Z,9.40
2022-10-04T05:38:07.264Z,10.48
2022-10-04T05:43:30.456Z,6.30
2022-10-04T05:48:35.906Z,4.45
2022-10-04T05:53:42.214Z,4.38
2022-10-04T05:58:56.224Z,4.50
2022-10-04T06:04:02.603Z,6.22
2022-10-04T06:09:47.446Z,4.47
2022-10-04T06:15:25.377Z,4.10
2022-10-04T06:20:52.365Z,3.88
2022-10-04T06:26:06.213Z,3.55
2022-10-04T06:31:14.598Z,3.45
2022-10-04T06:36:44.341Z,9.27
2022-10-04T06:42:09.439Z,6.43
2022-10-04T06:47:28.153Z,3.00
2022-10-04T06:52:54.288Z,4.03
2022-10-04T06:58:18.660Z,3.10
2022-10-04T07:03:31.556Z,7.70
2022-10-04T07:08:36.997Z,5.57
2022-10-04T07:13:59.037Z,3.10
2022-10-04T07:19:27.584Z,2.53
2022-10-04T07:24:53.796Z,5.22
2022-10-04T07:29:58.768Z,3.97
2022-10-04T07:35:08.800Z,5.85
2022-10-04T07:40:30.011Z,6.55
2022-10-04T07:45:39.997Z,6.63
2022-10-04T07:50:51.960Z,3.85
2022-10-04T07:56:18.045Z,3.10
2022-10-04T08:01:40.622Z,3.90
2022-10-04T08:07:03.863Z,3.65
2022-10-04T08:12:18.123Z,4.45
2022-10-04T08:17:32.425Z,5.78
2022-10-04T08:22:50.099Z,8.52
2022-10-04T08:28:25.922Z,5.30
2022-10-04T08:34:08.542Z,5.00
2022-10-04T08:39:35.999Z,3.17
2022-10-04T08:45:22.637Z,3.90
2022-10-04T08:50:31.315Z,4.15
2022-10-04T08:55:44.155Z,4.05
2022-10-04T09:01:28.391Z,4.47
2022-10-04T09:13:31.445Z,2.42
2022-10-04T09:24:51.432Z,44.38
2022-10-04T09:49:27.550Z,4.63
2022-10-04T09:54:47.335Z,4.10
2022-10-04T10:00:07.838Z,4.05
2022-10-04T10:12:01.761Z,3.47
2022-10-04T10:17:16.183Z,6.15
2022-10-04T10:22:50.638Z,3.95
2022-10-04T10:34:56.396Z,5.63
2022-10-04T10:40:54.519Z,8.27
2022-10-04T10:46:23.725Z,4.03
2022-10-04T10:52:14.928Z,3.03
2022-10-04T10:58:09.733Z,1.80
2022-10-04T11:04:32.509Z,2.42
2022-10-04T11:10:30.366Z,2.50
2022-10-04T11:16:13.328Z,3.00
2022-10-04T11:22:00.335Z,3.17
2022-10-04T11:34:00.535Z,6.95
2022-10-04T11:46:19.928Z,5.47
2022-10-04T11:58:42.422Z,6.55
2022-10-04T12:04:00.193Z,6.25
2022-10-04T12:09:25.182Z,8.63
2022-10-04T12:14:38.954Z,10.32
2022-10-04T12:20:34.660Z,6.85
2022-10-04T12:26:26.549Z,9.93
2022-10-04T12:31:59.904Z,12.07
2022-10-04T12:37:20.955Z,8.93
2022-10-04T12:42:46.965Z,9.38
2022-10-04T12:48:05.278Z,3.10
2022-10-04T12:53:34.747Z,2.92
2022-10-04T12:58:53.620Z,8.30
2022-10-04T13:04:29.081Z,13.95
2022-10-04T13:09:55.118Z,22.85
2022-10-04T13:15:24.421Z,12.20
2022-10-04T13:28:08.284Z,4.28
2022-10-04T13:34:12.672Z,3.42
2022-10-04T13:39:43.189Z,4.78
2022-10-04T13:45:11.087Z,4.78
2022-10-04T13:50:28.647Z,7.50
2022-10-04T13:56:08.616Z,11.70
2022-10-04T14:01:49.593Z,5.63
2022-10-04T14:07:10.713Z,4.75
2022-10-04T14:12:36.537Z,5.15
2022-10-04T14:18:13.323Z,7.22
2022-10-04T14:23:47.434Z,11.80
2022-10-04T14:29:29.019Z,11.20
2022-10-04T14:35:05.384Z,8.02
2022-10-04T14:40:24.066Z,5.32
2022-10-04T14:46:01.209Z,3.00
2022-10-04T14:51:30.219Z,2.95
2022-10-04T14:56:38.517Z,7.60
2022-10-04T15:02:07.834Z,4.60
2022-10-04T15:07:19.099Z,5.20
2022-10-04T15:13:11.172Z,8.52
2022-10-04T15:18:31.330Z,7.40
2022-10-04T15:23:50.630Z,40.30
2022-10-04T15:29:29.246Z,17.25
2022-10-04T15:34:36.992Z,8.77
2022-10-04T15:39:58.985Z,21.30
2022-10-04T15:45:17.347Z,115.32
2022-10-04T15:50:52.569Z,136.27
2022-10-04T15:56:00.490Z,83.78
2022-10-04T16:01:13.041Z,39.95
2022-10-04T16:07:00.078Z,28.77
2022-10-04T16:12:44.409Z,25.13
2022-10-04T16:18:15.884Z,29.77
2022-10-04T16:23:24.124Z,28.58
2022-10-04T16:28:49.979Z,28.60
2022-10-04T16:34:43.173Z,28.33
2022-10-04T16:40:00.795Z,29.55
2022-10-04T16:45:06.195Z,42.40
2022-10-04T16:50:10.402Z,56.63
2022-10-04T16:55:30.518Z,76.70
2022-10-04T17:00:37.989Z,92.28
2022-10-04T17:05:47.547Z,100.13
2022-10-04T17:10:49.971Z,82.82
2022-10-04T17:16:05.805Z,74.70
2022-10-04T17:21:28.642Z,68.43
2022-10-04T17:27:02.001Z,73.20
2022-10-04T17:32:24.358Z,63.10
2022-10-04T17:37:36.949Z,59.10
2022-10-04T17:43:07.614Z,46.50
2022-10-04T17:48:43.368Z,37.08
2022-10-04T17:54:06.821Z,42.58
2022-10-04T17:59:30.652Z,38.72
2022-10-04T18:04:36.539Z,33.72
2022-10-04T18:09:53.920Z,35.70
2022-10-04T18:15:07.513Z,49.45
2022-10-04T18:20:32.385Z,62.05
2022-10-04T18:25:35.283Z,52.38
2022-10-04T18:30:46.967Z,45.90
2022-10-04T18:36:01.022Z,48.33
2022-10-04T18:41:05.552Z,45.85
2022-10-04T18:46:11.860Z,46.08
2022-10-04T18:51:44.072Z,39.70
2022-10-04T18:57:10.553Z,38.50
2022-10-04T19:02:24.369Z,38.53
2022-10-04T19:12:41.275Z,33.08
2022-10-04T19:18:05.148Z,35.92
2022-10-04T19:28:22.845Z,32.45
2022-10-04T19:33:36.863Z,25.85
2022-10-04T19:39:16.974Z,22.75
2022-10-04T19:44:54.568Z,26.52
2022-10-04T19:50:04.111Z,25.30
2022-10-04T19:55:28.868Z,25.73
2022-10-04T20:00:32.467Z,33.08
2022-10-04T20:05:42.526Z,32.50
2022-10-04T20:10:44.858Z,25.45
2022-10-04T20:15:49.348Z,20.38
2022-10-04T20:20:57.104Z,17.77
2022-10-04T20:26:00.536Z,17.10
2022-10-04T20:31:05.541Z,17.25
2022-10-04T20:36:09.378Z,17.48
2022-10-04T20:41:49.255Z,17.00
2022-10-04T20:46:51.786Z,17.50
2022-10-04T20:51:54.161Z,17.98
2022-10-04T20:56:56.427Z,18.48
2022-10-04T21:02:13.707Z,16.52
2022-10-04T21:07:30.103Z,17.00
2022-10-04T21:12:34.801Z,17.48
2022-10-04T21:17:37.364Z,16.70
2022-10-04T21:22:40.457Z,16.95
2022-10-04T21:32:47.207Z,20.10
2022-10-04T21:37:51.537Z,19.90
2022-10-04T21:42:54.291Z,18.23
2022-10-04T21:47:56.764Z,16.27
2022-10-04T21:52:59.875Z,16.48
2022-10-04T21:58:02.751Z,16.85
2022-10-04T22:08:21.447Z,18.80
2022-10-04T22:13:23.749Z,17.08
2022-10-04T22:18:26.020Z,15.20
2022-10-04T22:23:33.988Z,12.70
2022-10-04T22:28:38.571Z,12.45
2022-10-04T22:33:42.781Z,12.48
2022-10-04T22:38:51.888Z,13.10
2022-10-04T22:43:56.915Z,14.43
2022-10-04T22:48:59.810Z,15.13
2022-10-04T22:54:02.064Z,13.97
2022-10-04T22:59:04.241Z,14.70
2022-10-04T23:04:23.995Z,11.82
2022-10-04T23:09:28.616Z,11.68
2022-10-04T23:14:35.507Z,12.65
2022-10-04T23:19:37.747Z,9.75
2022-10-04T23:24:40.076Z,10.10
2022-10-04T23:29:42.821Z,8.27
2022-10-04T23:34:47.038Z,9.40
2022-10-04T23:39:49.508Z,9.07
2022-10-04T23:44:52.042Z,7.97
2022-10-04T23:49:54.246Z,7.63
2022-10-04T23:54:56.619Z,7.53
